sensor_id;sensor_type;location;lat;lon;timestamp;temperature;humidity
4795;DHT22;2411;47.060;15.064;2023-07-13T00:02:01;19.30;1.00
4795;DHT22;2411;47.060;15.064;2023-07-13T00:04:28;19.20;1.00
4795;DHT22;2411;47.060;15.064;2023-07-13T00:06:59;19.20;1.00
4795;DHT22;2411;47.060;15.064;2023-07-13T00:09:27;19.30;1.00
4795;DHT22;2411;47.060;15.064;2023-07-13T00:11:56;19.20;1.00
4795;DHT22;2411;47.060;15.064;2023-07-13T00:14:25;19.10;1.00
4795;DHT22;2411;47.060;15.064;2023-07-13T00:16:54;18.90;1.00
4795;DHT22;2411;47.060;15.064;2023-07-13T00:19:21;18.80;1.00
4795;DHT22;2411;47.060;15.064;2023-07-13T00:21:49;18.70;1.00
4795;DHT22;2411;47.060;15.064;2023-07-13T00:24:18;18.50;1.00
4795;DHT22;2411;47.060;15.064;2023-07-13T00:26:51;18.60;1.00
4795;DHT22;2411;47.060;15.064;2023-07-13T00:29:18;18.60;1.00
4795;DHT22;2411;47.060;15.064;2023-07-13T00:31:47;18.60;1.00
4795;DHT22;2411;47.060;15.064;2023-07-13T00:34:14;18.70;1.00
4795;DHT22;2411;47.060;15.064;2023-07-13T00:36:41;18.70;1.00
4795;DHT22;2411;47.060;15.064;2023-07-13T00:39:09;18.80;1.00
4795;DHT22;2411;47.060;15.064;2023-07-13T00:41:36;18.90;1.00
4795;DHT22;2411;47.060;15.064;2023-07-13T00:44:04;18.70;1.00
4795;DHT22;2411;47.060;15.064;2023-07-13T00:46:33;18.70;1.00
4795;DHT22;2411;47.060;15.064;2023-07-13T00:49:06;18.70;1.00
4795;DHT22;2411;47.060;15.064;2023-07-13T00:51:57;18.80;1.00
4795;DHT22;2411;47.060;15.064;2023-07-13T00:54:38;18.90;1.00
4795;DHT22;2411;47.060;15.064;2023-07-13T00:57:14;19.20;1.00
4795;DHT22;2411;47.060;15.064;2023-07-13T00:59:47;19.20;1.00
4795;DHT22;2411;47.060;15.064;2023-07-13T01:02:15;19.30;1.00
4795;DHT22;2411;47.060;15.064;2023-07-13T01:04:43;19.20;1.00
4795;DHT22;2411;47.060;15.064;2023-07-13T01:07:12;19.20;1.00
4795;DHT22;2411;47.060;15.064;2023-07-13T01:09:39;19.20;1.00
4795;DHT22;2411;47.060;15.064;2023-07-13T01:12:07;19.20;1.00
4795;DHT22;2411;47.060;15.064;2023-07-13T01:14:35;19.00;1.00
4795;DHT22;2411;47.060;15.064;2023-07-13T01:17:03;19.00;1.00
4795;DHT22;2411;47.060;15.064;2023-07-13T01:19:37;18.90;1.00
4795;DHT22;2411;47.060;15.064;2023-07-13T01:22:09;18.80;1.00
4795;DHT22;2411;47.060;15.064;2023-07-13T01:24:40;18.90;1.00
4795;DHT22;2411;47.060;15.064;2023-07-13T01:27:10;19.10;1.00
4795;DHT22;2411;47.060;15.064;2023-07-13T01:29:38;19.10;1.00
4795;DHT22;2411;47.060;15.064;2023-07-13T01:32:16;19.20;1.00
4795;DHT22;2411;47.060;15.064;2023-07-13T01:34:44;19.00;1.00
4795;DHT22;2411;47.060;15.064;2023-07-13T01:37:12;19.10;1.00
4795;DHT22;2411;47.060;15.064;2023-07-13T01:39:40;19.10;1.00
4795;DHT22;2411;47.060;15.064;2023-07-13T01:42:07;19.20;1.00
4795;DHT22;2411;47.060;15.064;2023-07-13T01:44:35;19.00;1.00
4795;DHT22;2411;47.060;15.064;2023-07-13T01:47:02;18.80;1.00
4795;DHT22;2411;47.060;15.064;2023-07-13T01:49:30;18.80;1.00
4795;DHT22;2411;47.060;15.064;2023-07-13T01:51:57;18.70;1.00
4795;DHT22;2411;47.060;15.064;2023-07-13T01:54:24;18.80;1.00
4795;DHT22;2411;47.060;15.064;2023-07-13T01:56:52;18.80;1.00
4795;DHT22;2411;47.060;15.064;2023-07-13T01:59:19;18.80;1.00
4795;DHT22;2411;47.060;15.064;2023-07-13T02:01:46;18.70;1.00
4795;DHT22;2411;47.060;15.064;2023-07-13T02:04:14;18.60;1.00
4795;DHT22;2411;47.060;15.064;2023-07-13T02:06:41;18.60;1.00
4795;DHT22;2411;47.060;15.064;2023-07-13T02:09:08;18.50;1.00
4795;DHT22;2411;47.060;15.064;2023-07-13T02:11:36;18.60;1.00
4795;DHT22;2411;47.060;15.064;2023-07-13T02:14:03;18.50;1.00
4795;DHT22;2411;47.060;15.064;2023-07-13T02:16:31;18.50;1.00
4795;DHT22;2411;47.060;15.064;2023-07-13T02:18:58;18.40;1.00
4795;DHT22;2411;47.060;15.064;2023-07-13T02:21:27;18.30;1.00
4795;DHT22;2411;47.060;15.064;2023-07-13T02:23:55;18.30;1.00
4795;DHT22;2411;47.060;15.064;2023-07-13T02:26:22;18.30;1.00
4795;DHT22;2411;47.060;15.064;2023-07-13T02:28:50;18.30;1.00
4795;DHT22;2411;47.060;15.064;2023-07-13T02:31:17;18.40;1.00
4795;DHT22;2411;47.060;15.064;2023-07-13T02:33:45;18.40;1.00
4795;DHT22;2411;47.060;15.064;2023-07-13T02:36:13;18.50;1.00
4795;DHT22;2411;47.060;15.064;2023-07-13T02:38:43;18.40;1.00
4795;DHT22;2411;47.060;15.064;2023-07-13T02:41:10;18.30;1.00
4795;DHT22;2411;47.060;15.064;2023-07-13T02:43:39;18.30;1.00
4795;DHT22;2411;47.060;15.064;2023-07-13T02:46:06;18.10;1.00
4795;DHT22;2411;47.060;15.064;2023-07-13T02:48:36;18.00;1.00
4795;DHT22;2411;47.060;15.064;2023-07-13T02:51:04;17.90;1.00
4795;DHT22;2411;47.060;15.064;2023-07-13T02:53:32;17.70;1.00
4795;DHT22;2411;47.060;15.064;2023-07-13T02:55:59;17.60;1.00
4795;DHT22;2411;47.060;15.064;2023-07-13T02:58:27;17.60;1.00
4795;DHT22;2411;47.060;15.064;2023-07-13T03:00:56;17.70;1.00
4795;DHT22;2411;47.060;15.064;2023-07-13T03:03:23;17.80;1.00
4795;DHT22;2411;47.060;15.064;2023-07-13T03:05:59;17.70;1.00
4795;DHT22;2411;47.060;15.064;2023-07-13T03:08:27;17.60;1.00
4795;DHT22;2411;47.060;15.064;2023-07-13T03:11:05;17.60;1.00
4795;DHT22;2411;47.060;15.064;2023-07-13T03:13:33;17.70;1.00
4795;DHT22;2411;47.060;15.064;2023-07-13T03:16:00;17.60;2.80
4795;DHT22;2411;47.060;15.064;2023-07-13T03:18:28;17.60;1.00
4795;DHT22;2411;47.060;15.064;2023-07-13T03:20:55;17.50;2.60
4795;DHT22;2411;47.060;15.064;2023-07-13T03:23:23;17.50;7.60
4795;DHT22;2411;47.060;15.064;2023-07-13T03:26:02;17.50;14.80
4795;DHT22;2411;47.060;15.064;2023-07-13T03:28:30;17.50;22.90
4795;DHT22;2411;47.060;15.064;2023-07-13T03:31:07;17.40;27.10
4795;DHT22;2411;47.060;15.064;2023-07-13T03:33:35;17.30;23.60
4795;DHT22;2411;47.060;15.064;2023-07-13T03:36:04;17.40;19.10
4795;DHT22;2411;47.060;15.064;2023-07-13T03:38:33;17.30;19.90
4795;DHT22;2411;47.060;15.064;2023-07-13T03:41:00;17.20;11.00
4795;DHT22;2411;47.060;15.064;2023-07-13T03:43:28;17.30;4.60
4795;DHT22;2411;47.060;15.064;2023-07-13T03:45:55;17.30;15.50
4795;DHT22;2411;47.060;15.064;2023-07-13T03:48:23;17.30;21.30
4795;DHT22;2411;47.060;15.064;2023-07-13T03:50:50;17.30;26.40
4795;DHT22;2411;47.060;15.064;2023-07-13T03:53:18;17.30;43.30
4795;DHT22;2411;47.060;15.064;2023-07-13T03:55:46;17.20;58.50
4795;DHT22;2411;47.060;15.064;2023-07-13T03:58:31;17.10;71.80
4795;DHT22;2411;47.060;15.064;2023-07-13T04:01:00;17.10;79.70
4795;DHT22;2411;47.060;15.064;2023-07-13T04:03:28;17.00;69.10
4795;DHT22;2411;47.060;15.064;2023-07-13T04:05:56;17.10;45.10
4795;DHT22;2411;47.060;15.064;2023-07-13T04:08:28;17.10;38.90
4795;DHT22;2411;47.060;15.064;2023-07-13T04:10:56;17.10;23.00
4795;DHT22;2411;47.060;15.064;2023-07-13T04:13:25;17.20;28.50
4795;DHT22;2411;47.060;15.064;2023-07-13T04:15:53;17.30;25.00
4795;DHT22;2411;47.060;15.064;2023-07-13T04:18:21;17.30;21.00
4795;DHT22;2411;47.060;15.064;2023-07-13T04:20:49;17.40;17.10
4795;DHT22;2411;47.060;15.064;2023-07-13T04:23:17;17.30;32.10
4795;DHT22;2411;47.060;15.064;2023-07-13T04:25:46;17.30;38.10
4795;DHT22;2411;47.060;15.064;2023-07-13T04:28:16;17.30;46.50
4795;DHT22;2411;47.060;15.064;2023-07-13T04:30:45;17.20;59.70
4795;DHT22;2411;47.060;15.064;2023-07-13T04:33:12;17.30;52.80
4795;DHT22;2411;47.060;15.064;2023-07-13T04:35:40;17.30;49.00
4795;DHT22;2411;47.060;15.064;2023-07-13T04:38:07;17.30;34.30
4795;DHT22;2411;47.060;15.064;2023-07-13T04:40:34;17.50;44.40
4795;DHT22;2411;47.060;15.064;2023-07-13T04:43:02;17.60;27.20
4795;DHT22;2411;47.060;15.064;2023-07-13T04:45:29;17.70;18.30
4795;DHT22;2411;47.060;15.064;2023-07-13T04:47:58;17.60;17.70
4795;DHT22;2411;47.060;15.064;2023-07-13T04:50:25;17.50;13.20
4795;DHT22;2411;47.060;15.064;2023-07-13T04:52:52;17.50;15.40
4795;DHT22;2411;47.060;15.064;2023-07-13T04:55:20;17.40;20.40
4795;DHT22;2411;47.060;15.064;2023-07-13T04:57:47;17.40;14.30
4795;DHT22;2411;47.060;15.064;2023-07-13T05:00:15;17.50;10.90
4795;DHT22;2411;47.060;15.064;2023-07-13T05:02:45;17.50;7.20
4795;DHT22;2411;47.060;15.064;2023-07-13T05:05:13;17.60;5.10
4795;DHT22;2411;47.060;15.064;2023-07-13T05:07:41;17.70;18.20
4795;DHT22;2411;47.060;15.064;2023-07-13T05:10:08;17.70;25.20
4795;DHT22;2411;47.060;15.064;2023-07-13T05:12:36;17.70;18.90
4795;DHT22;2411;47.060;15.064;2023-07-13T05:15:03;17.80;20.00
4795;DHT22;2411;47.060;15.064;2023-07-13T05:17:31;17.80;16.40
4795;DHT22;2411;47.060;15.064;2023-07-13T05:19:58;17.90;16.40
4795;DHT22;2411;47.060;15.064;2023-07-13T05:22:26;18.00;12.50
4795;DHT22;2411;47.060;15.064;2023-07-13T05:24:54;18.10;4.60
4795;DHT22;2411;47.060;15.064;2023-07-13T05:27:21;18.20;4.90
4795;DHT22;2411;47.060;15.064;2023-07-13T05:29:48;18.30;4.70
4795;DHT22;2411;47.060;15.064;2023-07-13T05:32:17;18.40;1.00
4795;DHT22;2411;47.060;15.064;2023-07-13T05:34:44;18.60;1.00
4795;DHT22;2411;47.060;15.064;2023-07-13T05:37:12;18.60;1.00
4795;DHT22;2411;47.060;15.064;2023-07-13T05:39:39;18.80;1.80
4795;DHT22;2411;47.060;15.064;2023-07-13T05:42:07;18.70;1.00
4795;DHT22;2411;47.060;15.064;2023-07-13T05:44:34;18.80;1.00
4795;DHT22;2411;47.060;15.064;2023-07-13T05:47:02;18.90;1.00
4795;DHT22;2411;47.060;15.064;2023-07-13T05:49:30;18.90;1.00
4795;DHT22;2411;47.060;15.064;2023-07-13T05:51:57;18.80;1.00
4795;DHT22;2411;47.060;15.064;2023-07-13T05:54:25;18.80;1.00
4795;DHT22;2411;47.060;15.064;2023-07-13T05:56:52;19.00;1.00
4795;DHT22;2411;47.060;15.064;2023-07-13T05:59:19;19.20;1.00
4795;DHT22;2411;47.060;15.064;2023-07-13T06:01:48;19.30;1.00
4795;DHT22;2411;47.060;15.064;2023-07-13T06:04:16;19.50;1.00
4795;DHT22;2411;47.060;15.064;2023-07-13T06:06:43;19.60;1.00
4795;DHT22;2411;47.060;15.064;2023-07-13T06:09:10;19.70;1.60
4795;DHT22;2411;47.060;15.064;2023-07-13T06:11:38;19.80;1.00
4795;DHT22;2411;47.060;15.064;2023-07-13T06:14:05;20.00;1.00
4795;DHT22;2411;47.060;15.064;2023-07-13T06:16:32;20.00;1.00
4795;DHT22;2411;47.060;15.064;2023-07-13T06:19:00;20.00;1.00
4795;DHT22;2411;47.060;15.064;2023-07-13T06:21:27;20.20;1.00
4795;DHT22;2411;47.060;15.064;2023-07-13T06:23:55;20.40;1.00
4795;DHT22;2411;47.060;15.064;2023-07-13T06:26:22;20.40;1.00
4795;DHT22;2411;47.060;15.064;2023-07-13T06:28:49;20.70;1.00
4795;DHT22;2411;47.060;15.064;2023-07-13T06:31:17;20.70;1.00
4795;DHT22;2411;47.060;15.064;2023-07-13T06:33:44;20.90;1.00
4795;DHT22;2411;47.060;15.064;2023-07-13T06:36:11;21.10;1.00
4795;DHT22;2411;47.060;15.064;2023-07-13T06:38:39;21.30;1.00
4795;DHT22;2411;47.060;15.064;2023-07-13T06:41:07;21.40;1.00
4795;DHT22;2411;47.060;15.064;2023-07-13T06:43:36;21.60;1.00
4795;DHT22;2411;47.060;15.064;2023-07-13T06:46:03;21.50;1.00
4795;DHT22;2411;47.060;15.064;2023-07-13T06:48:31;21.50;1.00
4795;DHT22;2411;47.060;15.064;2023-07-13T06:50:58;21.60;1.00
4795;DHT22;2411;47.060;15.064;2023-07-13T06:53:25;21.70;1.00
4795;DHT22;2411;47.060;15.064;2023-07-13T06:55:53;21.80;1.00
4795;DHT22;2411;47.060;15.064;2023-07-13T06:58:21;22.00;1.00
4795;DHT22;2411;47.060;15.064;2023-07-13T07:00:51;22.20;1.00
4795;DHT22;2411;47.060;15.064;2023-07-13T07:03:19;22.30;1.00
4795;DHT22;2411;47.060;15.064;2023-07-13T07:05:47;22.30;1.00
4795;DHT22;2411;47.060;15.064;2023-07-13T07:08:14;22.40;1.00
4795;DHT22;2411;47.060;15.064;2023-07-13T07:10:42;22.40;1.00
4795;DHT22;2411;47.060;15.064;2023-07-13T07:13:09;22.50;1.00
4795;DHT22;2411;47.060;15.064;2023-07-13T07:15:36;22.60;1.00
4795;DHT22;2411;47.060;15.064;2023-07-13T07:18:04;22.70;1.00
4795;DHT22;2411;47.060;15.064;2023-07-13T07:20:31;22.80;1.00
4795;DHT22;2411;47.060;15.064;2023-07-13T07:22:59;22.90;1.00
4795;DHT22;2411;47.060;15.064;2023-07-13T07:25:27;22.80;1.00
4795;DHT22;2411;47.060;15.064;2023-07-13T07:27:58;22.60;1.00
4795;DHT22;2411;47.060;15.064;2023-07-13T07:30:29;22.80;1.00
4795;DHT22;2411;47.060;15.064;2023-07-13T07:32:59;22.80;1.00
4795;DHT22;2411;47.060;15.064;2023-07-13T07:35:31;22.90;1.00
4795;DHT22;2411;47.060;15.064;2023-07-13T07:38:04;22.90;1.00
4795;DHT22;2411;47.060;15.064;2023-07-13T07:40:31;22.90;1.00
4795;DHT22;2411;47.060;15.064;2023-07-13T07:43:01;23.00;1.00
4795;DHT22;2411;47.060;15.064;2023-07-13T07:45:28;22.90;1.00
4795;DHT22;2411;47.060;15.064;2023-07-13T07:47:56;22.90;1.00
4795;DHT22;2411;47.060;15.064;2023-07-13T07:50:27;23.00;1.00
4795;DHT22;2411;47.060;15.064;2023-07-13T07:52:55;23.10;1.00
4795;DHT22;2411;47.060;15.064;2023-07-13T07:55:25;23.10;1.00
4795;DHT22;2411;47.060;15.064;2023-07-13T07:57:56;23.00;1.00
4795;DHT22;2411;47.060;15.064;2023-07-13T08:00:27;23.10;1.00
4795;DHT22;2411;47.060;15.064;2023-07-13T08:03:18;23.40;1.00
4795;DHT22;2411;47.060;15.064;2023-07-13T08:05:48;23.30;1.00
4795;DHT22;2411;47.060;15.064;2023-07-13T08:08:18;23.50;1.00
4795;DHT22;2411;47.060;15.064;2023-07-13T08:10:46;23.70;1.00
4795;DHT22;2411;47.060;15.064;2023-07-13T08:13:13;23.70;1.00
4795;DHT22;2411;47.060;15.064;2023-07-13T08:15:41;23.90;1.00
4795;DHT22;2411;47.060;15.064;2023-07-13T08:18:08;24.00;1.00
4795;DHT22;2411;47.060;15.064;2023-07-13T08:20:37;24.10;1.00
4795;DHT22;2411;47.060;15.064;2023-07-13T08:23:06;24.20;1.00
4795;DHT22;2411;47.060;15.064;2023-07-13T08:25:34;24.40;1.00
4795;DHT22;2411;47.060;15.064;2023-07-13T08:28:03;24.30;1.00
4795;DHT22;2411;47.060;15.064;2023-07-13T08:30:31;24.30;1.00
4795;DHT22;2411;47.060;15.064;2023-07-13T08:32:58;24.40;1.00
4795;DHT22;2411;47.060;15.064;2023-07-13T08:35:25;24.30;1.00
4795;DHT22;2411;47.060;15.064;2023-07-13T08:37:53;24.10;1.00
4795;DHT22;2411;47.060;15.064;2023-07-13T08:40:24;24.00;1.00
4795;DHT22;2411;47.060;15.064;2023-07-13T08:42:57;23.90;1.00
4795;DHT22;2411;47.060;15.064;2023-07-13T08:45:47;24.10;1.00
4795;DHT22;2411;47.060;15.064;2023-07-13T08:54:35;24.00;1.00
4795;DHT22;2411;47.060;15.064;2023-07-13T08:57:27;24.10;1.00
4795;DHT22;2411;47.060;15.064;2023-07-13T09:00:15;24.30;1.00
4795;DHT22;2411;47.060;15.064;2023-07-13T09:02:56;24.50;1.00
4795;DHT22;2411;47.060;15.064;2023-07-13T09:05:42;24.60;1.00
4795;DHT22;2411;47.060;15.064;2023-07-13T09:11:49;24.60;1.00
4795;DHT22;2411;47.060;15.064;2023-07-13T09:14:33;24.90;1.00
4795;DHT22;2411;47.060;15.064;2023-07-13T09:17:10;25.00;1.00
4795;DHT22;2411;47.060;15.064;2023-07-13T09:19:40;25.20;1.00
4795;DHT22;2411;47.060;15.064;2023-07-13T09:22:13;25.50;1.00
4795;DHT22;2411;47.060;15.064;2023-07-13T09:25:00;25.70;1.00
4795;DHT22;2411;47.060;15.064;2023-07-13T09:27:35;26.00;1.00
4795;DHT22;2411;47.060;15.064;2023-07-13T09:32:50;26.50;1.00
4795;DHT22;2411;47.060;15.064;2023-07-13T09:35:28;26.40;1.00
4795;DHT22;2411;47.060;15.064;2023-07-13T09:38:10;26.60;1.00
4795;DHT22;2411;47.060;15.064;2023-07-13T09:43:28;27.20;1.00
4795;DHT22;2411;47.060;15.064;2023-07-13T09:46:23;27.20;1.00
4795;DHT22;2411;47.060;15.064;2023-07-13T09:49:10;27.30;1.00
4795;DHT22;2411;47.060;15.064;2023-07-13T09:51:40;27.50;1.00
4795;DHT22;2411;47.060;15.064;2023-07-13T09:54:19;27.50;1.00
4795;DHT22;2411;47.060;15.064;2023-07-13T09:56:57;27.50;1.00
4795;DHT22;2411;47.060;15.064;2023-07-13T09:59:33;27.70;1.00
4795;DHT22;2411;47.060;15.064;2023-07-13T10:02:02;27.70;1.00
4795;DHT22;2411;47.060;15.064;2023-07-13T10:04:33;27.80;1.00
4795;DHT22;2411;47.060;15.064;2023-07-13T10:07:07;28.10;1.00
4795;DHT22;2411;47.060;15.064;2023-07-13T10:09:56;28.40;1.00
4795;DHT22;2411;47.060;15.064;2023-07-13T10:12:25;28.40;1.00
4795;DHT22;2411;47.060;15.064;2023-07-13T10:15:02;28.20;1.00
4795;DHT22;2411;47.060;15.064;2023-07-13T10:17:53;28.30;1.00
4795;DHT22;2411;47.060;15.064;2023-07-13T10:20:21;28.00;1.00
4795;DHT22;2411;47.060;15.064;2023-07-13T10:23:04;27.90;1.00
4795;DHT22;2411;47.060;15.064;2023-07-13T10:25:37;27.50;1.00
4795;DHT22;2411;47.060;15.064;2023-07-13T10:28:37;27.40;1.00
4795;DHT22;2411;47.060;15.064;2023-07-13T10:31:12;27.40;1.00
4795;DHT22;2411;47.060;15.064;2023-07-13T10:33:41;27.50;1.00
4795;DHT22;2411;47.060;15.064;2023-07-13T10:36:20;27.60;1.00
4795;DHT22;2411;47.060;15.064;2023-07-13T10:38:50;27.80;1.00
4795;DHT22;2411;47.060;15.064;2023-07-13T10:41:21;27.60;1.00
4795;DHT22;2411;47.060;15.064;2023-07-13T10:43:54;27.50;1.00
4795;DHT22;2411;47.060;15.064;2023-07-13T10:46:26;27.50;1.00
4795;DHT22;2411;47.060;15.064;2023-07-13T10:49:05;27.30;1.00
4795;DHT22;2411;47.060;15.064;2023-07-13T10:51:35;27.50;1.00
4795;DHT22;2411;47.060;15.064;2023-07-13T10:56:49;27.40;1.00
4795;DHT22;2411;47.060;15.064;2023-07-13T10:59:24;27.40;1.00
4795;DHT22;2411;47.060;15.064;2023-07-13T11:05:12;27.30;1.00
4795;DHT22;2411;47.060;15.064;2023-07-13T11:16:45;26.50;1.00
4795;DHT22;2411;47.060;15.064;2023-07-13T11:22:09;26.30;1.00
4795;DHT22;2411;47.060;15.064;2023-07-13T11:25:01;26.40;1.00
4795;DHT22;2411;47.060;15.064;2023-07-13T11:27:42;26.20;1.00
4795;DHT22;2411;47.060;15.064;2023-07-13T11:30:30;26.30;1.00
4795;DHT22;2411;47.060;15.064;2023-07-13T11:33:18;26.50;1.00
4795;DHT22;2411;47.060;15.064;2023-07-13T11:36:13;26.30;1.00
4795;DHT22;2411;47.060;15.064;2023-07-13T11:41:49;26.20;1.00
4795;DHT22;2411;47.060;15.064;2023-07-13T11:44:23;26.10;1.00
4795;DHT22;2411;47.060;15.064;2023-07-13T11:46:53;25.80;1.00
4795;DHT22;2411;47.060;15.064;2023-07-13T11:49:26;25.70;1.00
4795;DHT22;2411;47.060;15.064;2023-07-13T11:51:59;25.80;1.00
4795;DHT22;2411;47.060;15.064;2023-07-13T11:54:28;25.70;1.00
4795;DHT22;2411;47.060;15.064;2023-07-13T11:57:25;25.50;1.00
4795;DHT22;2411;47.060;15.064;2023-07-13T12:00:17;25.50;1.00
4795;DHT22;2411;47.060;15.064;2023-07-13T12:02:48;25.10;1.00
4795;DHT22;2411;47.060;15.064;2023-07-13T12:05:19;24.80;1.00
4795;DHT22;2411;47.060;15.064;2023-07-13T12:07:48;24.50;1.00
4795;DHT22;2411;47.060;15.064;2023-07-13T12:10:30;24.30;1.00
4795;DHT22;2411;47.060;15.064;2023-07-13T12:13:05;24.40;1.00
4795;DHT22;2411;47.060;15.064;2023-07-13T12:15:43;24.20;1.00
4795;DHT22;2411;47.060;15.064;2023-07-13T12:18:23;24.30;1.00
4795;DHT22;2411;47.060;15.064;2023-07-13T12:20:51;24.10;1.00
4795;DHT22;2411;47.060;15.064;2023-07-13T12:23:25;24.00;1.00
4795;DHT22;2411;47.060;15.064;2023-07-13T12:26:13;24.10;1.00
4795;DHT22;2411;47.060;15.064;2023-07-13T12:29:04;24.10;1.00
4795;DHT22;2411;47.060;15.064;2023-07-13T12:31:39;24.40;1.00
4795;DHT22;2411;47.060;15.064;2023-07-13T12:34:12;24.60;1.00
4795;DHT22;2411;47.060;15.064;2023-07-13T12:37:01;24.20;1.00
4795;DHT22;2411;47.060;15.064;2023-07-13T12:42:24;24.10;1.00
4795;DHT22;2411;47.060;15.064;2023-07-13T12:47:25;24.10;1.00
4795;DHT22;2411;47.060;15.064;2023-07-13T12:49:59;24.10;1.00
4795;DHT22;2411;47.060;15.064;2023-07-13T12:52:31;24.00;1.00
4795;DHT22;2411;47.060;15.064;2023-07-13T12:55:11;24.00;1.00
4795;DHT22;2411;47.060;15.064;2023-07-13T13:00:35;23.90;1.00
4795;DHT22;2411;47.060;15.064;2023-07-13T13:03:29;23.70;1.00
4795;DHT22;2411;47.060;15.064;2023-07-13T13:06:04;23.50;1.00
4795;DHT22;2411;47.060;15.064;2023-07-13T13:08:33;23.30;1.00
4795;DHT22;2411;47.060;15.064;2023-07-13T13:11:02;23.20;1.00
4795;DHT22;2411;47.060;15.064;2023-07-13T13:13:29;23.10;1.00
4795;DHT22;2411;47.060;15.064;2023-07-13T13:18:44;23.10;1.00
4795;DHT22;2411;47.060;15.064;2023-07-13T13:21:11;23.00;1.00
4795;DHT22;2411;47.060;15.064;2023-07-13T13:23:39;23.00;1.00
4795;DHT22;2411;47.060;15.064;2023-07-13T13:26:16;22.90;1.00
4795;DHT22;2411;47.060;15.064;2023-07-13T13:28:43;22.90;1.00
4795;DHT22;2411;47.060;15.064;2023-07-13T13:31:14;22.90;1.00
4795;DHT22;2411;47.060;15.064;2023-07-13T13:33:44;22.70;1.00
4795;DHT22;2411;47.060;15.064;2023-07-13T13:36:21;22.60;1.00
4795;DHT22;2411;47.060;15.064;2023-07-13T13:38:50;22.70;1.00
4795;DHT22;2411;47.060;15.064;2023-07-13T13:41:17;22.90;1.00
4795;DHT22;2411;47.060;15.064;2023-07-13T13:44:04;23.10;1.00
4795;DHT22;2411;47.060;15.064;2023-07-13T13:46:55;23.40;1.00
4795;DHT22;2411;47.060;15.064;2023-07-13T13:49:41;23.30;1.00
4795;DHT22;2411;47.060;15.064;2023-07-13T13:52:09;23.40;1.00
4795;DHT22;2411;47.060;15.064;2023-07-13T13:54:37;23.30;1.00
4795;DHT22;2411;47.060;15.064;2023-07-13T13:57:08;23.10;1.00
4795;DHT22;2411;47.060;15.064;2023-07-13T13:59:36;23.30;1.00
4795;DHT22;2411;47.060;15.064;2023-07-13T14:02:27;23.60;1.00
4795;DHT22;2411;47.060;15.064;2023-07-13T14:05:01;24.10;1.00
4795;DHT22;2411;47.060;15.064;2023-07-13T14:07:28;23.90;1.00
4795;DHT22;2411;47.060;15.064;2023-07-13T14:09:59;23.90;1.00
4795;DHT22;2411;47.060;15.064;2023-07-13T14:12:28;23.70;1.00
4795;DHT22;2411;47.060;15.064;2023-07-13T14:14:56;23.20;1.00
4795;DHT22;2411;47.060;15.064;2023-07-13T14:17:27;22.70;1.00
4795;DHT22;2411;47.060;15.064;2023-07-13T14:19:55;22.60;1.00
4795;DHT22;2411;47.060;15.064;2023-07-13T14:22:25;22.40;1.00
4795;DHT22;2411;47.060;15.064;2023-07-13T14:24:53;22.40;1.00
4795;DHT22;2411;47.060;15.064;2023-07-13T14:27:21;22.10;1.00
4795;DHT22;2411;47.060;15.064;2023-07-13T14:29:49;22.00;1.00
4795;DHT22;2411;47.060;15.064;2023-07-13T14:32:16;21.90;1.00
4795;DHT22;2411;47.060;15.064;2023-07-13T14:34:43;21.90;1.00
4795;DHT22;2411;47.060;15.064;2023-07-13T14:37:15;21.70;1.00
4795;DHT22;2411;47.060;15.064;2023-07-13T14:39:44;21.50;1.00
4795;DHT22;2411;47.060;15.064;2023-07-13T14:42:13;21.30;1.00
4795;DHT22;2411;47.060;15.064;2023-07-13T14:44:40;21.20;1.00
4795;DHT22;2411;47.060;15.064;2023-07-13T14:47:08;21.00;1.00
4795;DHT22;2411;47.060;15.064;2023-07-13T14:49:41;21.00;1.00
4795;DHT22;2411;47.060;15.064;2023-07-13T14:52:13;21.00;1.00
4795;DHT22;2411;47.060;15.064;2023-07-13T14:54:41;20.80;1.00
4795;DHT22;2411;47.060;15.064;2023-07-13T14:57:11;20.60;1.00
4795;DHT22;2411;47.060;15.064;2023-07-13T14:59:39;20.40;1.00
4795;DHT22;2411;47.060;15.064;2023-07-13T15:02:18;20.10;1.00
4795;DHT22;2411;47.060;15.064;2023-07-13T15:04:48;19.80;1.00
4795;DHT22;2411;47.060;15.064;2023-07-13T15:07:15;19.60;1.00
4795;DHT22;2411;47.060;15.064;2023-07-13T15:09:44;18.50;1.00
4795;DHT22;2411;47.060;15.064;2023-07-13T15:12:12;17.20;1.00
4795;DHT22;2411;47.060;15.064;2023-07-13T15:14:39;16.30;1.00
4795;DHT22;2411;47.060;15.064;2023-07-13T15:19:48;16.10;99.90
4795;DHT22;2411;47.060;15.064;2023-07-13T15:22:16;16.00;99.90
4795;DHT22;2411;47.060;15.064;2023-07-13T15:24:43;16.00;99.90
4795;DHT22;2411;47.060;15.064;2023-07-13T15:27:12;16.20;1.00
4795;DHT22;2411;47.060;15.064;2023-07-13T15:29:39;16.30;1.00
4795;DHT22;2411;47.060;15.064;2023-07-13T15:32:16;16.40;1.00
4795;DHT22;2411;47.060;15.064;2023-07-13T15:34:43;16.50;1.00
4795;DHT22;2411;47.060;15.064;2023-07-13T15:37:15;16.80;99.90
4795;DHT22;2411;47.060;15.064;2023-07-13T15:39:43;16.90;99.90
4795;DHT22;2411;47.060;15.064;2023-07-13T15:42:21;16.80;99.90
4795;DHT22;2411;47.060;15.064;2023-07-13T15:44:49;16.70;99.90
4795;DHT22;2411;47.060;15.064;2023-07-13T15:47:16;16.90;99.90
4795;DHT22;2411;47.060;15.064;2023-07-13T15:49:45;16.90;99.90
4795;DHT22;2411;47.060;15.064;2023-07-13T15:52:23;17.10;99.90
4795;DHT22;2411;47.060;15.064;2023-07-13T15:54:50;17.20;99.90
4795;DHT22;2411;47.060;15.064;2023-07-13T15:57:18;17.30;99.90
4795;DHT22;2411;47.060;15.064;2023-07-13T15:59:46;17.30;99.90
4795;DHT22;2411;47.060;15.064;2023-07-13T16:02:18;17.20;99.90
4795;DHT22;2411;47.060;15.064;2023-07-13T16:04:46;17.10;1.00
4795;DHT22;2411;47.060;15.064;2023-07-13T16:07:15;17.20;99.90
4795;DHT22;2411;47.060;15.064;2023-07-13T16:09:49;17.30;99.90
4795;DHT22;2411;47.060;15.064;2023-07-13T16:12:17;17.20;99.90
4795;DHT22;2411;47.060;15.064;2023-07-13T16:14:44;17.20;99.90
4795;DHT22;2411;47.060;15.064;2023-07-13T16:17:12;17.00;99.90
4795;DHT22;2411;47.060;15.064;2023-07-13T16:19:41;16.90;99.90
4795;DHT22;2411;47.060;15.064;2023-07-13T16:22:16;16.90;99.90
4795;DHT22;2411;47.060;15.064;2023-07-13T16:24:44;17.20;99.90
4795;DHT22;2411;47.060;15.064;2023-07-13T16:27:12;17.30;99.90
4795;DHT22;2411;47.060;15.064;2023-07-13T16:29:40;17.30;99.90
4795;DHT22;2411;47.060;15.064;2023-07-13T16:32:12;17.40;99.90
4795;DHT22;2411;47.060;15.064;2023-07-13T16:34:42;17.40;99.90
4795;DHT22;2411;47.060;15.064;2023-07-13T16:37:20;17.30;1.00
4795;DHT22;2411;47.060;15.064;2023-07-13T16:39:54;17.30;1.00
4795;DHT22;2411;47.060;15.064;2023-07-13T16:42:24;17.30;1.00
4795;DHT22;2411;47.060;15.064;2023-07-13T16:44:52;17.50;1.00
4795;DHT22;2411;47.060;15.064;2023-07-13T16:47:22;17.50;1.00
4795;DHT22;2411;47.060;15.064;2023-07-13T16:49:50;17.60;1.00
4795;DHT22;2411;47.060;15.064;2023-07-13T16:52:18;17.50;1.00
4795;DHT22;2411;47.060;15.064;2023-07-13T16:54:49;17.40;1.00
4795;DHT22;2411;47.060;15.064;2023-07-13T16:57:21;17.30;1.00
4795;DHT22;2411;47.060;15.064;2023-07-13T16:59:53;17.20;1.00
4795;DHT22;2411;47.060;15.064;2023-07-13T17:04:51;17.20;1.00
4795;DHT22;2411;47.060;15.064;2023-07-13T17:07:18;17.20;1.00
4795;DHT22;2411;47.060;15.064;2023-07-13T17:09:45;17.20;1.00
4795;DHT22;2411;47.060;15.064;2023-07-13T17:12:13;17.20;1.00
4795;DHT22;2411;47.060;15.064;2023-07-13T17:14:41;17.20;1.00
4795;DHT22;2411;47.060;15.064;2023-07-13T17:17:15;17.30;1.00